General Rafael Buelna International Airport
MMMZ : rendu visible

Aérodrome :











RETROUVEZ-NOUS SUR...

 
LOGIN :

S'inscrire | Disclaimer

   EN    FR    IT 

 









Légende :    VFR   VFR Marginal   IFR   IFR Intensif   IFR Très Intensif
Visi : 
Plafond : 
>= 8 km
>= 3000ft
5 à 8 km
1000 à 3000 ft
1500m à 5 km
500 à 1000 ft
800 à 1500m
200 à 500 ft
< 800m
< 200 ft
Symboles :   Orages  Brouillard  Fortes neiges  Fortes précipitations  Vent > 20 kt






- Altitude de l'aérodrome : 38 ft
- Code IATA : MZT


MMMZ - General Rafael Buelna International

DERNIER METAR :
  • 250741Z 00000KT 10SM OVC230 19/18 A2998 RMK 8/007 HZY

METARs EXPIRÉS :
  • 250649Z 00000KT 10SM BKN230 19/18 A2997 RMK 8/007 HZY
  • 250544Z 30004KT 10SM OVC230 19/18 A3000 RMK SLP121 57017 913 8/007 HZY

TAF TAF MMMZ
Valide du 25 à 06h jusqu'au 26 à 12h UTC


250451Z 2506/2612 34005KT P6SM BKN250 TX26/2521Z TN15/2512Z
TEMPO 2510/2514 2SM BR HZ BKN008
FM251800 23010KT P6SM SCT020 BKN100 OVC250
FM260600 34005KT P6SM BKN250



MET'MAP, la Météo Aéronautique d'un coup d'oeil ! - Copyright ORBIFLY Décembre 2007 - Disclaimer

ORBIFLY MET'MAP TEAM :

Programmation & Développement : Alexandra Zaïnal
Sur une idée originale de : Baudouin d'Aumeries
Assistance à la programmation : Marc-Olivier Méhu
Soutien technique & logistique : Manuel Goepfert

Contact : metmap@orbifly.com




SOURCES & CREDITS :

   NOAA       Earth
Advisory